x

Nantucket 54nm Southeast Of Nantucket (44008) Wave Buoy

11:50am - Sun 2nd Aug 2015 All times are EDT. -4 hours from GMT.

  • Sig Wave height 4.6ft
  • Swell Direction
  • Peak Period 8s
  • Average Period 6s
  • Wind
    2mph
  • Sea Temp 71°f
  • Air Temp 72°f
  • Sea Pressure 1013.4mb
  • Nantucket 54nm Southeast Of Nantucket
  • Nantucket 54nm Southeast Of Nantucket

More Historic Weather Station data

Upgrade to MSW Pro to gain access to the past 30 days of data for over 8000 Wavebouys and Weather Stations around the globe.

Join Pro

Comparision Forecast

View Surf forecast
   
Sun 08/02 11:50am 4.5ft 8s 6s 2
mph
1013.4mb 71f 72f
10:50am 5ft 8s 6s 2 4 mph 1013.2mb 70f 70f
9:50am 5ft 6s 6s 2 4 mph 1012.7mb 69f 69f
8:50am 5.5ft 8s 6s 7 9 mph 1012.4mb 69f 69f
7:50am 5.5ft 8s 6s 9 11 mph 1012.1mb 69f 70f
6:50am 5ft 8s 6s 9 11 mph 1011.8mb 69f 71f
5:50am 5.5ft 9s 6s 11 13 mph 1011.3mb 68f 71f
4:50am 5ft 7s 6s 11 13 mph 1010.7mb 67f 71f
3:50am 5ft 7s 6s 13 18 mph 1010.2mb 68f 73f
2:50am 5ft 10s 6s 4
mph
1009.6mb 71f 73f
1:50am 5ft 10s 6s 11
mph
1010.4mb 72f 73f
12:50am 5ft 10s 6s 11 13 mph 1010.3mb 73f 74f
Sat 08/01 11:50pm 5ft 8s 6s 13
mph
1010.4mb 73f 74f
10:50pm 5ft 9s 6s 13 16 mph 1010.5mb 73f 75f
9:50pm 4.5ft 8s 5s 13 16 mph 1010.3mb 71f 75f
8:50pm 5.5ft 10s 6s 13 16 mph 1010mb 70f 74f
7:50pm 5ft 10s 6s 13
mph
1009.6mb 69f 74f
6:50pm 5.5ft 8s 7s 13 16 mph 1009.2mb 69f 75f
5:50pm 6ft 11s 7s 13 16 mph 1009mb 70f 76f
4:50pm 5ft 9s 7s 13 16 mph 1009.1mb 72f 76f
3:50pm 5ft 9s 7s 13 16 mph 1009.4mb 72f 76f
2:50pm 5ft 9s 7s 11 13 mph 1009.7mb 72f 75f
1:50pm 4.5ft 10s 7s 11 13 mph 1010mb 70f 75f
12:50pm 5ft 8s 7s 11
mph
1010.2mb 72f 75f
11:50am 5ft 10s 7s 9 11 mph 1010.5mb 71f 74f
10:50am 4.5ft 10s 7s 9
mph
1010.4mb 73f 74f
9:50am 5ft 8s 7s 9
mph
1010.3mb 71f 74f
8:50am 5ft 9s 7s 7 9 mph 1009.8mb 71f 72f
7:50am 5ft 8s 7s 2 4 mph 1009.6mb 67f 69f
6:50am 5ft 9s 7s 4
mph
1009.1mb 65f 68f
5:50am 5ft 8s 7s 2 4 mph 1008.7mb 66f 67f
4:50am 5ft 8s 7s 4
mph
1008.7mb 65f 68f
3:50am 4.5ft 8s 7s 4
mph
1008.7mb 67f 70f
2:50am 4.5ft 9s 7s 4
mph
1009.4mb 68f 70f
1:50am 5ft 8s 7s 4 7 mph 1009.6mb 69f 72f
12:50am 5ft 8s 6s 4 7 mph 1009.6mb 72f 72f
Fri 07/31 11:50pm 5ft 7s 6s 7
mph
1010.4mb 71f 73f
10:50pm 5ft 7s 6s 9
mph
1010.3mb 71f 73f
9:50pm 5ft 7s 6s 7
mph
1010.1mb 69f 73f
8:50pm 5ft 7s 6s 7
mph
1009.8mb 72f 73f
7:50pm 5.5ft 7s 6s 4
mph
1009.6mb 70f 72f
6:50pm 5.5ft 7s 6s 7
mph
1009.3mb 69f 73f
5:50pm 5.5ft 7s 6s 7 9 mph 1009.4mb 69f 73f
4:50pm 5.5ft 7s 7s 4 7 mph 1009.4mb 69f 72f
3:50pm 5ft 8s 7s 4
mph
1009.5mb 68f 71f
2:50pm 5ft 8s 7s 7 9 mph 1009.5mb 68f 72f
1:50pm 5.5ft 8s 6s 4 7 mph 1009.9mb 73f 72f
12:50pm 5.5ft 7s 6s 7 9 mph 1010.1mb 73f 70f
11:50am 5.5ft 7s 6s 9 11 mph 1010.4mb 72f 73f
10:50am 6ft 6s 6s 9 11 mph 1010.3mb 72f 73f
9:50am 5ft 7s 5s 9
mph
1010.1mb 70f 72f
8:50am 4.5ft 6s 5s 7
mph
1010.2mb 67f 70f
7:50am 4.5ft 6s 5s 9 11 mph 1010.3mb 65f 70f
6:50am 4ft 6s 5s 7 9 mph 1009.8mb 65f 69f
5:50am 3.5ft 9s 5s 7 9 mph 1009.7mb 65f 69f
4:50am 3.5ft 6s 5s 11
mph
1009.1mb 67f 74f
3:50am 3.5ft 9s 6s 9 11 mph 1009.2mb 69f 74f
2:50am 3.5ft 10s 5s 11
mph
1009.8mb 68f 74f
1:50am 3.5ft 6s 5s 11 13 mph 1010.3mb 69f 75f
12:50am 3.5ft 6s 5s 11 13 mph 1010.7mb 71f 75f
Thu 07/30 11:50pm 3.5ft 6s 5s 13 16 mph 1011.1mb 73f 76f
10:50pm 3.5ft 5s 5s 11 13 mph 1011.5mb 73f 76f
9:50pm 4ft 5s 5s 9 11 mph 1012.1mb 73f 76f
8:50pm 4ft 10s 5s 11
mph
1011.9mb 72f 75f
7:50pm 3.5ft 5s 5s 11
mph
1012.1mb 72f 75f
6:50pm 3.5ft 6s 5s 9 11 mph 1012.3mb 72f 75f
5:50pm 3.5ft 6s 5s 9 11 mph 1012.1mb 71f 75f
4:50pm 3.5ft 8s 5s 9 11 mph 1012.4mb 71f 76f
3:50pm 3.5ft 9s 5s 11
mph
1012.8mb 71f 76f
2:50pm 3.5ft 9s 5s 11 13 mph 1013.4mb 71f 76f
1:50pm 3.5ft 10s 5s 13 16 mph 1013.8mb 73f 76f
12:50pm 3.5ft 10s 5s 13
mph
1014mb 74f 76f
11:50am 3.5ft 9s 5s 11
mph
1014.3mb 74f 76f
10:50am 3.5ft 10s 5s 11 13 mph 1014.6mb 74f 76f
9:50am 3.5ft 9s 5s 13
mph
1014.4mb 73f 76f
8:50am 3.5ft 10s 5s 13
mph
1014.5mb 71f 75f
7:50am 3.5ft 10s 5s 11
mph
1014.5mb 71f 74f
6:50am 3.5ft 10s 6s 9 11 mph 1014.2mb 71f 73f
5:50am 3.5ft 8s 6s 9 11 mph 1014.1mb 70f 73f
4:50am 3.5ft 10s 7s 9
mph
1014.2mb 68f 73f
3:50am 3.5ft 9s 6s 7 9 mph 1014.1mb 70f 73f
2:50am 3.5ft 9s 6s 9 11 mph 1013.9mb 70f 73f
1:50am 3.5ft 8s 7s 13 16 mph 1014mb 71f 74f
12:50am 3.5ft 9s 7s 13 16 mph 1014.1mb 72f 75f
Wed 07/29 11:50pm 3.5ft 10s 7s 9 11 mph 1014.6mb 74f 75f
10:50pm 3.5ft 11s 7s 11
mph
1014.4mb 75f 76f
9:50pm 4ft 10s 7s 11 13 mph 1014.2mb 74f 76f
8:50pm 4.5ft 10s 7s 13 16 mph 1014mb 73f 75f
7:50pm 4.5ft 9s 8s 11 13 mph 1013.8mb 74f 75f
6:50pm 5ft 10s 8s 9
mph
1014.1mb 73f 75f
5:50pm 5ft 10s 8s 7
mph
1013.9mb 73f 75f